Terminal Aerodrome Forecast
Issued by NWS Boise, ID

Home | Current Version | Previous Version | Text Only | Print | Product List | Glossary On
Versions: 1 2 3 4 5 6 7 8 9 10 11 12 13 14 15 16 17
000
FTUS45 KBOI 252335
TAFBOI
TAF
KBOI 252335Z 2600/2624 32010KT P6SM SCT100
      TEMPO 2603/2605 14010G20KT
     FM260500 14005KT P6SM BKN100
     FM262100 VRB06KT P6SM VCSH BKN100
      TEMPO 2621/2624 VRB10G25KT=

USA.gov is the U.S. government's official web portal to all federal, state and local government web resources and services.